createdAt,value
2023-05-10T00:00:31.220Z,52.53
2023-05-10T00:01:31.244Z,52.14
2023-05-10T00:02:31.332Z,52.01
2023-05-10T00:03:31.285Z,52.14
2023-05-10T00:04:31.197Z,52.17
2023-05-10T00:05:31.147Z,52.30
2023-05-10T00:06:31.140Z,52.30
2023-05-10T00:07:31.208Z,52.30
2023-05-10T00:08:31.153Z,52.47
2023-05-10T00:09:31.129Z,52.50
2023-05-10T00:10:31.138Z,52.63
2023-05-10T00:11:31.097Z,52.76
2023-05-10T00:12:31.125Z,52.86
2023-05-10T00:13:31.284Z,52.69
2023-05-10T00:14:31.061Z,52.56
2023-05-10T00:15:31.119Z,52.53
2023-05-10T00:16:31.104Z,52.83
2023-05-10T00:17:31.126Z,52.93
2023-05-10T00:18:31.058Z,52.76
2023-05-10T00:19:31.093Z,52.63
2023-05-10T00:20:31.016Z,52.43
2023-05-10T00:21:30.975Z,52.50
2023-05-10T00:22:30.986Z,52.86
2023-05-10T00:23:30.993Z,52.73
2023-05-10T00:24:31.003Z,52.79
2023-05-10T00:25:30.964Z,52.60
2023-05-10T00:26:30.982Z,52.76
2023-05-10T00:27:30.929Z,52.69
2023-05-10T00:28:30.912Z,52.63
2023-05-10T00:29:30.903Z,52.83
2023-05-10T00:30:30.925Z,52.93
2023-05-10T00:31:30.952Z,52.96
2023-05-10T00:32:31.038Z,52.96
2023-05-10T00:33:30.885Z,53.06
2023-05-10T00:34:30.857Z,52.76
2023-05-10T00:35:30.862Z,52.56
2023-05-10T00:36:30.984Z,52.37
2023-05-10T00:37:30.842Z,52.30
2023-05-10T00:38:30.861Z,52.43
2023-05-10T00:39:30.825Z,52.53
2023-05-10T00:40:30.793Z,52.60
2023-05-10T00:41:30.795Z,52.73
2023-05-10T00:42:30.783Z,52.93
2023-05-10T00:43:30.748Z,52.96
2023-05-10T00:44:30.740Z,53.03
2023-05-10T00:45:30.745Z,53.06
2023-05-10T00:46:30.910Z,52.79
2023-05-10T00:47:30.758Z,52.83
2023-05-10T00:48:30.743Z,52.99
2023-05-10T00:49:30.682Z,52.83
2023-05-10T00:50:30.671Z,52.99
2023-05-10T00:51:30.665Z,53.10
2023-05-10T00:52:30.666Z,53.20
2023-05-10T00:53:30.625Z,53.26
2023-05-10T00:54:30.669Z,53.20
2023-05-10T00:55:30.602Z,53.43
2023-05-10T00:56:30.599Z,53.36
2023-05-10T00:57:30.585Z,53.33
2023-05-10T00:58:30.596Z,53.36
2023-05-10T00:59:30.557Z,53.40
2023-05-10T01:00:30.663Z,53.50
2023-05-10T01:01:30.575Z,53.23
2023-05-10T01:02:30.605Z,53.03
2023-05-10T01:03:30.602Z,53.36
2023-05-10T01:04:30.549Z,53.13
2023-05-10T01:05:30.536Z,53.40
2023-05-10T01:06:30.512Z,53.53
2023-05-10T01:07:30.477Z,53.64
2023-05-10T01:08:30.483Z,53.64
2023-05-10T01:09:30.482Z,53.60
2023-05-10T01:10:30.483Z,53.71
2023-05-10T01:11:30.481Z,53.43
2023-05-10T01:12:30.480Z,53.47
2023-05-10T01:13:30.501Z,53.57
2023-05-10T01:14:30.412Z,53.60
2023-05-10T01:15:30.398Z,53.67
2023-05-10T01:16:30.510Z,53.77
2023-05-10T01:17:30.413Z,53.84
2023-05-10T01:18:30.372Z,53.57
2023-05-10T01:19:30.369Z,53.26
2023-05-10T01:20:30.340Z,53.60
2023-05-10T01:21:30.331Z,53.71
2023-05-10T01:22:30.311Z,53.67
2023-05-10T01:23:30.432Z,53.53
2023-05-10T01:24:30.414Z,53.16
2023-05-10T01:25:30.326Z,53.16
2023-05-10T01:26:30.288Z,53.13
2023-05-10T01:27:30.283Z,53.16
2023-05-10T01:28:30.253Z,52.96
2023-05-10T01:29:30.258Z,53.06
2023-05-10T01:30:30.263Z,53.40
2023-05-10T01:31:30.283Z,53.43
2023-05-10T01:32:31.290Z,53.30
2023-05-10T01:33:30.896Z,53.43
2023-05-10T01:34:30.222Z,53.60
2023-05-10T01:35:30.188Z,53.50
2023-05-10T01:36:30.168Z,53.57
2023-05-10T01:37:30.179Z,53.64
2023-05-10T01:38:30.137Z,53.40
2023-05-10T01:39:30.128Z,53.20
2023-05-10T01:40:30.159Z,53.16
2023-05-10T01:41:30.115Z,53.16
2023-05-10T01:42:30.199Z,53.36
2023-05-10T01:43:30.175Z,53.26
2023-05-10T01:44:30.105Z,53.33
2023-05-10T01:45:30.056Z,53.10
2023-05-10T01:46:30.097Z,53.40
2023-05-10T01:47:30.123Z,53.20
2023-05-10T01:48:30.055Z,53.43
2023-05-10T01:49:30.068Z,53.26
2023-05-10T01:50:30.025Z,53.43
2023-05-10T01:51:30.031Z,53.50
2023-05-10T01:52:30.090Z,53.47
2023-05-10T01:53:29.982Z,53.36
2023-05-10T01:54:29.994Z,53.40
2023-05-10T01:55:29.973Z,53.23
2023-05-10T01:56:29.991Z,53.23
2023-05-10T01:57:29.950Z,53.33
2023-05-10T01:58:29.928Z,53.23
2023-05-10T01:59:29.927Z,53.30
2023-05-10T02:00:29.987Z,53.23
2023-05-10T02:01:29.889Z,53.23
2023-05-10T02:02:29.910Z,53.20
2023-05-10T02:03:29.938Z,53.23
2023-05-10T02:04:29.907Z,53.64
2023-05-10T02:05:29.902Z,53.98
2023-05-10T02:06:29.871Z,53.84
2023-05-10T02:07:29.835Z,54.02
2023-05-10T02:08:29.823Z,54.19
2023-05-10T02:09:29.835Z,54.72
2023-05-10T02:10:29.798Z,55.15
2023-05-10T02:11:29.781Z,55.70
2023-05-10T02:12:29.861Z,55.96
2023-05-10T02:13:29.851Z,56.56
2023-05-10T02:14:29.759Z,56.90
2023-05-10T02:15:29.739Z,56.98
2023-05-10T02:16:29.781Z,57.02
2023-05-10T02:17:29.807Z,57.37
2023-05-10T02:18:29.739Z,57.61
2023-05-10T02:19:29.716Z,57.76
2023-05-10T02:20:29.725Z,57.45
2023-05-10T02:21:29.713Z,58.00
2023-05-10T02:22:29.685Z,58.37
2023-05-10T02:23:29.777Z,58.41
2023-05-10T02:24:29.698Z,58.49
2023-05-10T02:25:29.638Z,58.37
2023-05-10T02:26:29.628Z,58.29
2023-05-10T02:27:29.624Z,58.57
2023-05-10T02:28:29.625Z,58.82
2023-05-10T02:29:29.618Z,58.73
2023-05-10T02:30:29.585Z,58.90
2023-05-10T02:31:29.611Z,58.73
2023-05-10T02:32:29.641Z,58.61
2023-05-10T02:33:29.567Z,58.53
2023-05-10T02:34:29.561Z,58.41
2023-05-10T02:35:29.547Z,58.69
2023-05-10T02:36:29.528Z,58.78
2023-05-10T02:37:29.525Z,58.90
2023-05-10T02:38:29.530Z,58.57
2023-05-10T02:39:29.517Z,58.69
2023-05-10T02:40:29.486Z,58.37
2023-05-10T02:41:29.510Z,58.53
2023-05-10T02:42:29.502Z,58.65
2023-05-10T02:43:29.461Z,58.53
2023-05-10T02:44:29.470Z,58.53
2023-05-10T02:45:29.440Z,58.49
2023-05-10T02:46:29.438Z,58.21
2023-05-10T02:47:29.447Z,58.41
2023-05-10T02:48:29.438Z,58.21
2023-05-10T02:49:29.424Z,58.33
2023-05-10T02:50:29.369Z,58.17
2023-05-10T02:51:29.384Z,58.12
2023-05-10T02:52:29.363Z,58.29
2023-05-10T02:53:29.380Z,58.17
2023-05-10T02:54:29.337Z,58.12
2023-05-10T02:55:29.342Z,58.33
2023-05-10T02:56:29.337Z,58.69
2023-05-10T02:57:29.304Z,58.90
2023-05-10T02:58:29.299Z,59.15
2023-05-10T02:59:29.317Z,59.27
2023-05-10T03:00:29.286Z,59.27
2023-05-10T03:01:29.349Z,58.94
2023-05-10T03:02:29.315Z,58.69
2023-05-10T03:03:29.241Z,58.86
2023-05-10T03:04:29.293Z,58.61
2023-05-10T03:05:29.221Z,58.29
2023-05-10T03:06:29.210Z,58.33
2023-05-10T03:07:29.217Z,58.21
2023-05-10T03:08:29.183Z,58.78
2023-05-10T03:09:29.171Z,58.69
2023-05-10T03:10:29.215Z,58.82
2023-05-10T03:11:29.192Z,58.82
2023-05-10T03:12:29.159Z,58.86
2023-05-10T03:13:29.341Z,58.90
2023-05-10T03:14:29.130Z,59.19
2023-05-10T03:15:29.163Z,59.23
2023-05-10T03:16:29.127Z,59.10
2023-05-10T03:17:29.133Z,58.98
2023-05-10T03:18:29.090Z,59.02
2023-05-10T03:19:29.068Z,59.23
2023-05-10T03:20:29.092Z,59.19
2023-05-10T03:21:29.074Z,59.31
2023-05-10T03:22:29.032Z,59.57
2023-05-10T03:23:29.033Z,59.02
2023-05-10T03:24:29.087Z,59.40
2023-05-10T03:25:29.011Z,59.52
2023-05-10T03:26:28.989Z,59.65
2023-05-10T03:27:29.016Z,59.69
2023-05-10T03:28:29.062Z,59.48
2023-05-10T03:29:28.958Z,59.82
2023-05-10T03:30:29.097Z,59.40
2023-05-10T03:31:29.016Z,59.36
2023-05-10T03:32:28.981Z,59.48
2023-05-10T03:33:28.936Z,59.40
2023-05-10T03:34:29.121Z,59.52
2023-05-10T03:35:28.923Z,59.74
2023-05-10T03:36:28.918Z,59.69
2023-05-10T03:37:28.903Z,60.08
2023-05-10T03:38:30.495Z,59.82
2023-05-10T03:39:28.976Z,59.57
2023-05-10T03:40:28.872Z,60.03
2023-05-10T03:41:28.862Z,59.78
2023-05-10T03:42:28.883Z,59.44
2023-05-10T03:43:28.881Z,59.31
2023-05-10T03:44:28.819Z,59.44
2023-05-10T03:45:28.863Z,59.86
2023-05-10T03:46:28.868Z,60.08
2023-05-10T03:47:28.857Z,59.91
2023-05-10T03:48:28.771Z,59.78
2023-05-10T03:49:28.764Z,59.78
2023-05-10T03:50:28.835Z,59.65
2023-05-10T03:51:28.824Z,59.82
2023-05-10T03:52:28.761Z,59.65
2023-05-10T03:53:28.777Z,59.86
2023-05-10T03:54:28.706Z,59.78
2023-05-10T03:55:28.722Z,59.99
2023-05-10T03:56:28.698Z,60.16
2023-05-10T03:57:28.746Z,60.03
2023-05-10T03:58:28.675Z,59.95
2023-05-10T03:59:28.689Z,60.42
2023-05-10T04:00:28.698Z,60.33
2023-05-10T04:01:28.683Z,60.60
2023-05-10T04:02:28.771Z,60.99
2023-05-10T04:03:28.745Z,61.17
2023-05-10T04:04:28.628Z,61.39
2023-05-10T04:05:28.601Z,61.48
2023-05-10T04:06:28.717Z,61.66
2023-05-10T04:07:28.601Z,61.66
2023-05-10T04:08:28.594Z,61.17
2023-05-10T04:09:28.546Z,61.26
2023-05-10T04:10:28.552Z,61.30
2023-05-10T04:11:28.580Z,61.71
2023-05-10T04:12:28.564Z,61.75
2023-05-10T04:13:28.547Z,61.53
2023-05-10T04:14:28.496Z,61.75
2023-05-10T04:15:28.503Z,61.53
2023-05-10T04:16:28.808Z,61.62
2023-05-10T04:17:28.500Z,61.35
2023-05-10T04:18:28.473Z,61.48
2023-05-10T04:19:28.426Z,61.12
2023-05-10T04:20:28.445Z,61.26
2023-05-10T04:21:28.428Z,61.30
2023-05-10T04:22:28.406Z,61.04
2023-05-10T04:23:28.404Z,61.08
2023-05-10T04:24:28.409Z,61.30
2023-05-10T04:25:28.365Z,60.95
2023-05-10T04:26:28.390Z,60.90
2023-05-10T04:27:28.371Z,61.08
2023-05-10T04:28:28.342Z,61.48
2023-05-10T04:29:28.331Z,61.21
2023-05-10T04:30:28.350Z,61.44
2023-05-10T04:31:28.359Z,61.21
2023-05-10T04:32:28.333Z,61.21
2023-05-10T04:33:28.296Z,60.90
2023-05-10T04:34:28.273Z,61.26
2023-05-10T04:35:28.246Z,61.26
2023-05-10T04:36:28.278Z,61.21
2023-05-10T04:37:28.262Z,61.12
2023-05-10T04:38:28.260Z,61.12
2023-05-10T04:39:28.208Z,61.35
2023-05-10T04:40:28.208Z,61.21
2023-05-10T04:41:28.183Z,61.85
2023-05-10T04:42:28.185Z,61.85
2023-05-10T04:43:28.199Z,62.03
2023-05-10T04:44:28.192Z,62.44
2023-05-10T04:45:28.154Z,62.44
2023-05-10T04:46:28.330Z,62.12
2023-05-10T04:47:28.203Z,61.94
2023-05-10T04:48:28.159Z,62.03
2023-05-10T04:49:28.116Z,61.35
2023-05-10T04:50:28.111Z,61.30
2023-05-10T04:51:28.104Z,61.26
2023-05-10T04:52:28.104Z,61.17
2023-05-10T04:53:28.073Z,61.04
2023-05-10T04:54:28.092Z,61.26
2023-05-10T04:55:28.056Z,61.35
2023-05-10T04:56:28.025Z,60.95
2023-05-10T04:57:28.034Z,61.21
2023-05-10T04:58:28.028Z,60.95
2023-05-10T04:59:27.999Z,60.51
2023-05-10T05:00:28.025Z,60.33
2023-05-10T05:01:28.066Z,60.42
2023-05-10T05:02:28.067Z,60.60
2023-05-10T05:03:28.062Z,60.16
2023-05-10T05:04:27.958Z,59.74
2023-05-10T05:05:27.946Z,59.65
2023-05-10T05:06:27.964Z,59.74
2023-05-10T05:07:27.971Z,59.48
2023-05-10T05:08:27.932Z,59.40
2023-05-10T05:09:27.909Z,59.40
2023-05-10T05:10:27.918Z,59.78
2023-05-10T05:11:27.912Z,59.82
2023-05-10T05:12:27.876Z,59.82
2023-05-10T05:13:27.912Z,59.95
2023-05-10T05:14:27.854Z,59.78
2023-05-10T05:15:27.835Z,59.48
2023-05-10T05:16:27.873Z,59.36
2023-05-10T05:17:27.880Z,58.98
2023-05-10T05:18:27.844Z,58.98
2023-05-10T05:19:27.833Z,59.10
2023-05-10T05:20:27.822Z,58.98
2023-05-10T05:21:27.803Z,59.10
2023-05-10T05:22:27.753Z,59.23
2023-05-10T05:23:27.843Z,59.31
2023-05-10T05:24:27.757Z,59.82
2023-05-10T05:25:27.755Z,59.82
2023-05-10T05:26:27.751Z,59.52
2023-05-10T05:27:27.734Z,59.15
2023-05-10T05:28:27.728Z,58.90
2023-05-10T05:29:27.906Z,58.98
2023-05-10T05:30:27.688Z,58.94
2023-05-10T05:31:27.734Z,58.61
2023-05-10T05:32:27.768Z,58.90
2023-05-10T05:33:27.758Z,59.23
2023-05-10T05:34:27.753Z,59.40
2023-05-10T05:35:27.626Z,59.23
2023-05-10T05:36:27.679Z,58.65
2023-05-10T05:37:27.615Z,58.24
2023-05-10T05:38:27.627Z,58.53
2023-05-10T05:39:27.612Z,58.37
2023-05-10T05:40:27.620Z,58.33
2023-05-10T05:41:27.594Z,58.29
2023-05-10T05:42:27.537Z,58.17
2023-05-10T05:43:27.565Z,58.53
2023-05-10T05:44:27.527Z,58.37
2023-05-10T05:45:27.507Z,58.08
2023-05-10T05:46:27.567Z,58.00
2023-05-10T05:47:27.505Z,58.12
2023-05-10T05:48:27.482Z,58.17
2023-05-10T05:49:27.475Z,58.12
2023-05-10T05:50:27.447Z,58.53
2023-05-10T05:51:28.074Z,58.17
2023-05-10T05:52:27.520Z,58.29
2023-05-10T05:53:27.478Z,58.08
2023-05-10T05:54:27.424Z,57.72
2023-05-10T05:55:27.408Z,57.72
2023-05-10T05:56:27.382Z,57.92
2023-05-10T05:57:27.385Z,57.84
2023-05-10T05:58:27.582Z,57.61
2023-05-10T05:59:27.356Z,57.61
2023-05-10T06:00:27.430Z,57.21
2023-05-10T06:01:27.371Z,57.06
2023-05-10T06:02:27.373Z,56.90
2023-05-10T06:03:27.514Z,56.67
2023-05-10T06:04:27.450Z,56.33
2023-05-10T06:05:27.300Z,56.14
2023-05-10T06:06:27.289Z,56.14
2023-05-10T06:07:27.292Z,55.81
2023-05-10T06:08:27.288Z,56.22
2023-05-10T06:09:27.255Z,55.99
2023-05-10T06:10:27.308Z,55.81
2023-05-10T06:11:27.251Z,55.96
2023-05-10T06:12:27.236Z,55.59
2023-05-10T06:13:27.280Z,55.51
2023-05-10T06:14:27.208Z,55.51
2023-05-10T06:15:27.196Z,55.22
2023-05-10T06:16:27.229Z,55.48
2023-05-10T06:17:27.214Z,55.37
2023-05-10T06:18:27.227Z,55.04
2023-05-10T06:19:27.137Z,54.68
2023-05-10T06:20:27.268Z,54.97
2023-05-10T06:21:27.133Z,54.97
2023-05-10T06:22:27.166Z,54.68
2023-05-10T06:23:27.098Z,54.61
2023-05-10T06:24:27.138Z,54.61
2023-05-10T06:25:27.071Z,54.54
2023-05-10T06:26:27.072Z,54.47
2023-05-10T06:27:27.156Z,54.61
2023-05-10T06:28:27.050Z,54.76
2023-05-10T06:29:27.034Z,54.76
2023-05-10T06:30:27.068Z,54.72
2023-05-10T06:31:27.112Z,55.01
2023-05-10T06:32:27.130Z,54.97
2023-05-10T06:33:27.308Z,55.04
2023-05-10T06:34:26.974Z,55.04
2023-05-10T06:35:26.988Z,54.90
2023-05-10T06:36:26.957Z,55.19
2023-05-10T06:37:26.941Z,55.08
2023-05-10T06:38:26.954Z,55.33
2023-05-10T06:39:26.961Z,54.93
2023-05-10T06:40:26.944Z,54.90
2023-05-10T06:41:26.908Z,54.51
2023-05-10T06:42:26.914Z,54.51
2023-05-10T06:43:26.976Z,54.54
2023-05-10T06:44:26.939Z,54.58
2023-05-10T06:45:27.017Z,53.98
2023-05-10T06:46:26.937Z,54.22
2023-05-10T06:47:26.952Z,54.02
2023-05-10T06:48:26.827Z,54.33
2023-05-10T06:49:26.930Z,54.37
2023-05-10T06:50:26.834Z,54.29
2023-05-10T06:51:26.814Z,54.22
2023-05-10T06:52:26.829Z,53.95
2023-05-10T06:53:26.793Z,54.08
2023-05-10T06:54:26.810Z,54.19
2023-05-10T06:55:26.776Z,54.29
2023-05-10T06:56:26.752Z,54.51
2023-05-10T06:57:31.628Z,54.19
2023-05-10T06:58:26.735Z,54.29
2023-05-10T06:59:26.854Z,54.12
2023-05-10T07:00:26.726Z,53.74
2023-05-10T07:01:26.830Z,53.88
2023-05-10T07:02:26.790Z,53.50
2023-05-10T07:03:26.691Z,53.95
2023-05-10T07:04:26.691Z,53.77
2023-05-10T07:05:26.729Z,53.77
2023-05-10T07:06:33.699Z,53.84
2023-05-10T07:07:26.640Z,53.77
2023-05-10T07:08:26.618Z,53.57
2023-05-10T07:09:26.640Z,53.30
2023-05-10T07:10:26.625Z,53.30
2023-05-10T07:11:26.614Z,53.33
2023-05-10T07:12:26.706Z,53.30
2023-05-10T07:13:26.637Z,53.20
2023-05-10T07:14:26.713Z,53.33
2023-05-10T07:15:26.560Z,53.36
2023-05-10T07:16:26.584Z,52.96
2023-05-10T07:17:26.715Z,52.76
2023-05-10T07:18:26.557Z,52.93
2023-05-10T07:19:26.539Z,52.93
2023-05-10T07:20:26.518Z,52.69
2023-05-10T07:21:26.625Z,52.76
2023-05-10T07:22:26.524Z,52.43
2023-05-10T07:23:26.469Z,52.63
2023-05-10T07:24:26.526Z,52.79
2023-05-10T07:25:26.478Z,52.63
2023-05-10T07:26:26.441Z,52.53
2023-05-10T07:27:26.430Z,52.69
2023-05-10T07:28:26.434Z,52.83
2023-05-10T07:29:26.498Z,52.69
2023-05-10T07:30:26.453Z,52.66
2023-05-10T07:31:26.399Z,52.96
2023-05-10T07:32:26.517Z,52.53
2023-05-10T07:33:26.351Z,52.27
2023-05-10T07:34:26.429Z,52.66
2023-05-10T07:35:26.396Z,51.85
2023-05-10T07:36:26.350Z,50.85
2023-05-10T07:37:26.328Z,50.63
2023-05-10T07:38:26.320Z,50.42
2023-05-10T07:39:27.777Z,49.94
2023-05-10T07:40:26.284Z,52.30
2023-05-10T07:41:26.274Z,51.31
2023-05-10T07:42:26.298Z,51.56
2023-05-10T07:43:26.296Z,52.08
2023-05-10T07:44:26.332Z,53.26
2023-05-10T07:45:26.267Z,50.60
2023-05-10T07:46:26.384Z,50.00
2023-05-10T07:47:26.246Z,50.97
2023-05-10T07:48:26.245Z,52.60
2023-05-10T07:49:26.240Z,54.26
2023-05-10T07:50:26.192Z,53.23
2023-05-10T07:51:26.178Z,52.40
2023-05-10T07:52:26.169Z,54.37
2023-05-10T07:53:26.173Z,53.71
2023-05-10T07:54:26.137Z,54.26
2023-05-10T07:55:26.154Z,56.03
2023-05-10T07:56:26.131Z,55.29
2023-05-10T07:57:26.119Z,56.52
2023-05-10T07:58:26.086Z,57.76
2023-05-10T07:59:26.070Z,56.18
2023-05-10T08:00:26.080Z,54.54
2023-05-10T08:01:26.081Z,55.99
2023-05-10T08:02:26.137Z,57.29
2023-05-10T08:03:26.157Z,59.78
2023-05-10T08:04:26.133Z,60.77
2023-05-10T08:05:26.024Z,62.81
2023-05-10T08:06:26.057Z,63.10
2023-05-10T08:07:26.022Z,59.82
2023-05-10T08:08:25.976Z,56.90
2023-05-10T08:09:26.020Z,55.74
2023-05-10T08:10:26.927Z,58.12
2023-05-10T08:11:26.235Z,58.53
2023-05-10T08:12:25.952Z,59.82
2023-05-10T08:13:25.936Z,59.36
2023-05-10T08:14:25.930Z,60.51
2023-05-10T08:15:25.917Z,61.08
2023-05-10T08:16:25.981Z,62.81
2023-05-10T08:17:25.978Z,60.86
2023-05-10T08:18:25.924Z,57.57
2023-05-10T08:19:25.869Z,55.55
2023-05-10T08:20:25.872Z,55.44
2023-05-10T08:21:25.862Z,55.01
2023-05-10T08:22:25.835Z,56.75
2023-05-10T08:23:25.857Z,53.40
2023-05-10T08:24:25.855Z,54.08
2023-05-10T08:25:25.793Z,55.88
2023-05-10T08:26:25.808Z,60.16
2023-05-10T08:27:25.820Z,57.81
2023-05-10T08:28:25.783Z,60.03
2023-05-10T08:29:26.794Z,59.57
2023-05-10T08:30:25.761Z,60.38
2023-05-10T08:31:25.795Z,61.85
2023-05-10T08:32:25.827Z,61.66
2023-05-10T08:33:25.716Z,60.47
2023-05-10T08:34:25.882Z,61.44
2023-05-10T08:35:25.720Z,65.61
2023-05-10T08:36:25.699Z,66.76
2023-05-10T08:37:25.677Z,66.13
2023-05-10T08:38:25.677Z,63.24
2023-05-10T08:39:30.472Z,65.76
2023-05-10T08:40:25.650Z,68.16
2023-05-10T08:41:25.697Z,68.22
2023-05-10T08:42:25.650Z,65.61
2023-05-10T08:43:25.737Z,66.02
2023-05-10T08:44:25.659Z,65.46
2023-05-10T08:45:25.649Z,64.85
2023-05-10T08:46:25.629Z,65.20
2023-05-10T08:47:25.644Z,65.05
2023-05-10T08:48:25.560Z,62.67
2023-05-10T08:49:25.596Z,60.68
2023-05-10T08:50:25.583Z,63.38
2023-05-10T08:51:25.519Z,65.97
2023-05-10T08:52:25.526Z,70.68
2023-05-10T08:53:25.497Z,71.10
2023-05-10T08:54:25.499Z,68.95
2023-05-10T08:55:25.740Z,68.72
2023-05-10T08:56:25.480Z,69.75
2023-05-10T08:57:25.519Z,69.98
2023-05-10T08:58:25.448Z,70.10
2023-05-10T08:59:25.462Z,70.21
2023-05-10T09:00:25.439Z,73.40
2023-05-10T09:01:25.585Z,77.03
2023-05-10T09:02:25.520Z,77.53
2023-05-10T09:03:25.440Z,72.51
2023-05-10T09:04:25.615Z,69.75
2023-05-10T09:05:25.432Z,68.89
2023-05-10T09:06:25.403Z,70.27
2023-05-10T09:07:25.353Z,74.38
2023-05-10T09:08:25.353Z,74.38
2023-05-10T09:09:25.348Z,75.85
2023-05-10T09:10:25.330Z,74.84
2023-05-10T09:11:25.333Z,71.53
2023-05-10T09:12:25.297Z,69.75
2023-05-10T09:13:25.371Z,69.75
2023-05-10T09:14:25.296Z,71.29
2023-05-10T09:15:25.295Z,78.18
2023-05-10T09:16:25.311Z,87.00
2023-05-10T09:17:25.407Z,91.05
2023-05-10T09:18:27.829Z,87.18
2023-05-10T09:19:25.242Z,83.96
2023-05-10T09:20:25.264Z,82.80
2023-05-10T09:21:25.411Z,86.46
2023-05-10T09:22:25.211Z,88.74
2023-05-10T09:23:25.233Z,86.55
2023-05-10T09:24:25.174Z,84.13
2023-05-10T09:25:25.184Z,81.36
2023-05-10T09:26:25.186Z,80.19
2023-05-10T09:27:25.145Z,75.24
2023-05-10T09:28:25.149Z,73.85
2023-05-10T09:29:25.123Z,75.24
2023-05-10T09:30:25.155Z,84.98
2023-05-10T09:31:25.129Z,79.06
2023-05-10T09:32:25.165Z,78.77
2023-05-10T09:33:25.105Z,79.51
2023-05-10T09:34:25.069Z,81.12
2023-05-10T09:35:27.077Z,83.46
2023-05-10T09:36:25.081Z,87.91
2023-05-10T09:37:25.024Z,87.18
2023-05-10T09:38:25.018Z,81.28
2023-05-10T09:39:24.998Z,78.18
2023-05-10T09:40:25.049Z,77.39
2023-05-10T09:41:24.992Z,81.75
2023-05-10T09:42:25.005Z,87.82
2023-05-10T09:43:24.979Z,94.43
2023-05-10T09:44:24.979Z,94.11
2023-05-10T09:45:24.981Z,92.86
2023-05-10T09:46:25.030Z,94.53
2023-05-10T09:47:24.958Z,95.18
2023-05-10T09:48:24.929Z,93.07
2023-05-10T09:49:24.945Z,90.27
2023-05-10T09:50:25.263Z,94.85
2023-05-10T09:51:24.906Z,92.66
2023-05-10T09:52:24.866Z,89.31
2023-05-10T09:53:24.868Z,81.91
2023-05-10T09:54:24.852Z,78.40
2023-05-10T09:55:24.868Z,81.83
2023-05-10T09:56:24.832Z,85.15
2023-05-10T09:57:24.859Z,89.31
2023-05-10T09:58:24.823Z,88.65
2023-05-10T09:59:24.821Z,87.18
2023-05-10T10:00:24.790Z,86.73
2023-05-10T10:01:24.841Z,89.12
2023-05-10T10:02:24.776Z,89.88
2023-05-10T10:03:24.750Z,92.66
2023-05-10T10:04:24.774Z,95.50
2023-05-10T10:05:24.752Z,95.07
2023-05-10T10:06:30.137Z,93.48
2023-05-10T10:07:24.729Z,92.35
2023-05-10T10:08:24.701Z,89.88
2023-05-10T10:09:24.694Z,89.69
2023-05-10T10:10:24.693Z,88.84
2023-05-10T10:11:24.671Z,87.45
2023-05-10T10:12:24.701Z,85.41
2023-05-10T10:13:24.675Z,83.13
2023-05-10T10:14:24.624Z,79.44
2023-05-10T10:15:24.634Z,79.96
2023-05-10T10:16:24.655Z,84.21
2023-05-10T10:17:24.646Z,87.27
2023-05-10T10:18:24.637Z,91.15
2023-05-10T10:19:24.581Z,91.85
2023-05-10T10:20:24.639Z,92.66
2023-05-10T10:21:24.557Z,94.03
2023-05-10T10:22:24.550Z,98.26
2023-05-10T10:23:24.553Z,98.03
2023-05-10T10:24:24.572Z,95.31
2023-05-10T10:25:24.523Z,93.82
2023-05-10T10:26:24.531Z,96.73
2023-05-10T10:27:24.486Z,98.78
2023-05-10T10:28:25.966Z,98.90
2023-05-10T10:29:24.483Z,97.46
2023-05-10T10:30:24.499Z,94.45
2023-05-10T10:31:24.458Z,94.40
2023-05-10T10:32:24.521Z,97.29
2023-05-10T10:33:28.755Z,100.13
2023-05-10T10:34:24.417Z,107.70
2023-05-10T10:35:24.413Z,113.37
2023-05-10T10:36:24.384Z,110.68
2023-05-10T10:37:24.396Z,111.05
2023-05-10T10:38:24.456Z,113.90
2023-05-10T10:39:24.354Z,110.75
2023-05-10T10:40:24.344Z,106.00
2023-05-10T10:41:24.354Z,106.54
2023-05-10T10:42:24.359Z,102.76
2023-05-10T10:43:24.385Z,106.81
2023-05-10T10:44:24.324Z,107.70
2023-05-10T10:45:24.304Z,107.02
2023-05-10T10:46:24.316Z,111.49
2023-05-10T10:47:24.450Z,114.60
2023-05-10T10:48:24.257Z,111.27
2023-05-10T10:49:24.289Z,106.81
2023-05-10T10:50:24.294Z,103.08
2023-05-10T10:51:24.273Z,102.14
2023-05-10T10:52:24.256Z,98.09
2023-05-10T10:53:24.209Z,99.25
2023-05-10T10:54:24.203Z,99.84
2023-05-10T10:55:24.221Z,96.57
2023-05-10T10:56:24.193Z,94.75
2023-05-10T10:57:24.167Z,94.85
2023-05-10T10:58:24.157Z,90.07
2023-05-10T10:59:24.139Z,90.37
2023-05-10T11:00:24.151Z,95.63
2023-05-10T11:01:24.216Z,99.60
2023-05-10T11:02:24.163Z,99.13
2023-05-10T11:03:24.113Z,99.25
2023-05-10T11:04:24.124Z,100.49
2023-05-10T11:05:24.136Z,102.02
2023-05-10T11:06:24.065Z,100.13
2023-05-10T11:07:24.056Z,100.43
2023-05-10T11:08:24.040Z,99.90
2023-05-10T11:09:24.040Z,102.39
2023-05-10T11:10:24.060Z,103.84
2023-05-10T11:11:24.026Z,104.04
2023-05-10T11:12:24.025Z,98.32
2023-05-10T11:13:23.983Z,94.53
2023-05-10T11:14:23.976Z,91.65
2023-05-10T11:15:23.971Z,91.15
2023-05-10T11:16:23.979Z,90.76
2023-05-10T11:17:24.046Z,93.17
2023-05-10T11:18:23.976Z,92.66
2023-05-10T11:19:23.914Z,93.07
2023-05-10T11:20:23.925Z,93.48
2023-05-10T11:21:23.911Z,96.79
2023-05-10T11:22:23.918Z,98.15
2023-05-10T11:23:23.885Z,96.96
2023-05-10T11:24:23.870Z,95.18
2023-05-10T11:25:23.860Z,94.75
2023-05-10T11:26:23.868Z,94.43
2023-05-10T11:27:23.867Z,91.15
2023-05-10T11:28:23.830Z,88.19
2023-05-10T11:29:23.873Z,82.15
2023-05-10T11:30:23.861Z,81.67
2023-05-10T11:31:23.904Z,78.47
2023-05-10T11:32:23.846Z,74.77
2023-05-10T11:33:23.814Z,70.39
2023-05-10T11:34:23.824Z,67.51
2023-05-10T11:35:23.808Z,69.40
2023-05-10T11:36:23.758Z,70.98
2023-05-10T11:37:23.730Z,67.24
2023-05-10T11:38:23.755Z,65.92
2023-05-10T11:39:23.927Z,64.70
2023-05-10T11:40:23.690Z,63.91
2023-05-10T11:41:23.685Z,64.11
2023-05-10T11:42:23.691Z,65.10
2023-05-10T11:43:23.790Z,64.40
2023-05-10T11:44:23.680Z,64.16
2023-05-10T11:45:23.645Z,61.39
2023-05-10T11:46:23.696Z,60.42
2023-05-10T11:47:23.717Z,60.95
2023-05-10T11:48:23.668Z,63.62
2023-05-10T11:49:23.605Z,65.30
2023-05-10T11:50:23.635Z,66.07
2023-05-10T11:51:23.580Z,64.90
2023-05-10T11:52:23.565Z,66.02
2023-05-10T11:53:24.793Z,67.13
2023-05-10T11:54:23.623Z,64.40
2023-05-10T11:55:23.552Z,65.36
2023-05-10T11:56:23.644Z,69.69
2023-05-10T11:57:23.533Z,70.39
2023-05-10T11:58:23.528Z,70.98
2023-05-10T11:59:23.516Z,70.45
2023-05-10T12:00:23.628Z,72.02
2023-05-10T12:01:23.485Z,75.99
2023-05-10T12:02:23.605Z,80.12
2023-05-10T12:03:23.610Z,81.99
2023-05-10T12:04:23.582Z,85.50
2023-05-10T12:05:23.432Z,84.81
2023-05-10T12:06:23.426Z,84.29
2023-05-10T12:07:23.419Z,84.21
2023-05-10T12:08:23.428Z,83.62
2023-05-10T12:10:23.457Z,82.64
2023-05-10T12:11:23.360Z,75.92
2023-05-10T12:12:23.357Z,74.05
2023-05-10T12:13:23.353Z,70.27
2023-05-10T12:14:23.338Z,69.75
2023-05-10T12:15:23.359Z,71.77
2023-05-10T12:16:23.402Z,71.83
2023-05-10T12:17:23.355Z,70.51
2023-05-10T12:18:23.320Z,68.27
2023-05-10T12:19:23.330Z,69.81
2023-05-10T12:20:23.286Z,71.53
2023-05-10T12:21:23.273Z,72.51
2023-05-10T12:22:23.274Z,73.02
2023-05-10T12:23:23.235Z,72.20
2023-05-10T12:24:23.377Z,73.46
2023-05-10T12:25:23.225Z,77.89
2023-05-10T12:26:23.456Z,83.62
2023-05-10T12:27:23.209Z,85.93
2023-05-10T12:28:23.194Z,85.67
2023-05-10T12:29:23.252Z,85.32
2023-05-10T12:30:23.192Z,90.37
2023-05-10T12:31:23.250Z,89.40
2023-05-10T12:32:23.164Z,90.76
2023-05-10T12:33:23.137Z,91.35
2023-05-10T12:34:23.116Z,90.27
2023-05-10T12:35:23.139Z,96.35
2023-05-10T12:36:23.105Z,95.80
2023-05-10T12:37:23.091Z,93.58
2023-05-10T12:38:23.074Z,91.25
2023-05-10T12:39:23.085Z,91.05
2023-05-10T12:40:23.050Z,91.05
2023-05-10T12:41:23.127Z,90.46
2023-05-10T12:42:23.045Z,87.45
2023-05-10T12:43:23.045Z,85.50
2023-05-10T12:44:23.034Z,83.38
2023-05-10T12:45:23.056Z,86.11
2023-05-10T12:46:23.184Z,93.92
2023-05-10T12:47:22.989Z,94.61
2023-05-10T12:48:23.008Z,94.88
2023-05-10T12:49:22.965Z,97.24
2023-05-10T12:50:22.943Z,100.49
2023-05-10T12:51:22.952Z,102.02
2023-05-10T12:52:22.967Z,101.89